Airfield :







YOU CAN JOIN US ON...

 
LOGIN :

Register | Disclaimer

   EN    FR    IT 

 









Legend :    VFR   Marginal VFR   IFR   Intensive IFR   Very Intensive IFR
Visi :
Ceiling :
>= 8 km
>= 3000ft
5 to 8 km
1000 to 3000 ft
1500m to 5 km
500 to 1000 ft
800 to 1500m
200 to 500 ft
< 800m
< 200 ft
Symbols :   Thunderstorms  Fog  Heavy snow  Heavy precipitations  Wind > 20 kt






- Airport Elevation : 1194 ft


KPSF - Pittsfield Municipal

CURRENT METAR :
  • 071054Z AUTO 00000KT 10SM BKN021 OVC065 M10/M12 A3019 RMK AO2 SLP239 I1000 T11001117

EXPIRED METARs :
  • 071040Z AUTO 00000KT 10SM BKN022 OVC065 M09/M12 A3018 RMK AO2 I1000 T10941117
  • 071026Z AUTO 00000KT 10SM SCT022 BKN065 M11/M12 A3017 RMK AO2 I1000 T11061122
  • 071010Z AUTO 00000KT 10SM SCT024 M09/M12 A3017 RMK AO2 T10941122
  • 070954Z AUTO 00000KT 10SM BKN024 M09/M11 A3016 RMK AO2 SLP231 T10891111
  • 070924Z AUTO 00000KT 10SM BKN025 M09/M12 A3015 RMK AO2 T10941117
  • 070854Z AUTO 00000KT 10SM CLR M08/M11 A3015 RMK AO2 SLP223 T10781111 51020

TAF KPSF
Valid from the 07 at 10:00 until the 08 at 06:00 UTC


071025Z 0710/0806 00000KT P6SM -SHSN BKN024 BKN070
FM071200 30004KT P6SM SCT015
FM071700 30008KT P6SM SCT015
FM080000 29004KT P6SM SKC



MET'MAP, your aeronautical weather chart ! - Copyright ORBIFLY December 2007 - Disclaimer

ORBIFLY MET'MAP TEAM :

Programming & Development : Alexandra Zaïnal
Concept & original design : Baudouin d'Aumeries
Assistance for programming : Marc-Olivier Méhu
Technical & hardware support : Manuel Goepfert

Contact : metmap@orbifly.com




SOURCES & CREDITS :

   NOAA